Time;durP1;ratioP1;P1;durP2;ratioP2;P2;SDS_P1;SDS_P2;PMS_P1;PMS_P2;Temp;Humidity;BMP_temperature;BMP_pressure;BME280_temperature;BME280_humidity;BME280_pressure;Samples;Min_cycle;Max_cycle;Signal;HPM_P1;HPM_P2
2023/03/16 00:01:20;;;;;;;0.75;0.75;;;;;;;2.70;99.80;93794.41;5139701;27;20220;-76
2023/03/16 00:03:47;;;;;;;0.63;0.60;;;;;;;2.83;99.93;93798.97;5151208;27;20309;-74
2023/03/16 00:06:13;;;;;;;0.80;0.60;;;;;;;2.72;99.33;93795.72;5139849;27;20199;-75
2023/03/16 00:08:42;;;;;;;0.40;0.40;;;;;;;2.79;100.00;93803.31;5150767;27;20192;-73
2023/03/16 00:11:11;;;;;;;0.80;0.60;;;;;;;2.77;100.00;93800.94;5152350;27;20336;-78
2023/03/16 00:13:37;;;;;;;1.27;0.75;;;;;;;2.72;100.00;93802.94;5138442;27;20579;-78
2023/03/16 00:16:06;;;;;;;0.60;0.50;;;;;;;2.66;100.00;93804.91;5151377;27;20277;-76
2023/03/16 00:18:37;;;;;;;0.88;0.82;;;;;;;2.52;100.00;93804.13;5145902;27;20590;-75
2023/03/16 00:21:05;;;;;;;0.40;0.40;;;;;;;2.41;100.00;93813.44;5140640;27;20181;-78
2023/03/16 00:23:34;;;;;;;0.50;0.50;;;;;;;2.42;100.00;93815.03;5148937;27;20304;-76
2023/03/16 00:26:03;;;;;;;0.95;0.80;;;;;;;2.40;100.00;93811.84;5151114;27;20268;-76
2023/03/16 00:28:34;;;;;;;0.75;0.75;;;;;;;2.37;100.00;93807.09;5137456;27;20224;-72
2023/03/16 00:31:01;;;;;;;0.95;0.90;;;;;;;2.44;100.00;93812.84;5138311;27;20193;-76
2023/03/16 00:33:28;;;;;;;1.85;0.93;;;;;;;2.37;100.00;93812.44;5144155;27;20255;-78
2023/03/16 00:36:01;;;;;;;0.40;0.40;;;;;;;2.32;100.00;93815.22;5142673;27;20224;-77
2023/03/16 00:38:30;;;;;;;0.57;0.57;;;;;;;2.35;100.00;93819.94;5130571;27;20250;-76
2023/03/16 00:40:56;;;;;;;0.50;0.50;;;;;;;2.32;100.00;93815.22;5144444;27;20260;-77
2023/03/16 00:43:26;;;;;;;0.35;0.35;;;;;;;2.24;100.00;93829.25;5143010;27;20260;-78
2023/03/16 00:46:05;;;;;;;1.10;1.00;;;;;;;2.11;100.00;93822.78;5144515;27;20292;-77
2023/03/16 00:48:33;;;;;;;1.20;1.10;;;;;;;2.18;100.00;93830.44;5150278;27;20241;-75
2023/03/16 00:51:00;;;;;;;0.80;0.80;;;;;;;2.06;100.00;93831.69;5147176;27;20752;-76
2023/03/16 00:53:27;;;;;;;0.50;0.45;;;;;;;2.09;100.00;93832.97;5151456;27;20212;-77
2023/03/16 00:55:53;;;;;;;0.40;0.40;;;;;;;2.21;100.00;93827.94;5136785;27;20284;-78
2023/03/16 00:58:22;;;;;;;0.38;0.38;;;;;;;2.22;100.00;93826.06;5140622;27;20201;-75
2023/03/16 01:00:50;;;;;;;0.50;0.50;;;;;;;2.25;100.00;93836.19;5134484;27;20266;-78
2023/03/16 01:03:18;;;;;;;0.65;0.65;;;;;;;2.14;100.00;93815.00;5139689;27;20204;-77
2023/03/16 01:05:44;;;;;;;1.10;1.00;;;;;;;2.17;100.00;93823.50;5144504;27;20258;-75
2023/03/16 01:08:11;;;;;;;0.70;0.70;;;;;;;2.18;100.00;93822.44;5142304;27;20193;-75
2023/03/16 01:10:39;;;;;;;1.25;0.90;;;;;;;2.14;100.00;93830.22;5137519;27;20200;-76
2023/03/16 01:13:06;;;;;;;0.85;0.73;;;;;;;2.04;100.00;93831.22;5151039;27;20738;-75
2023/03/16 01:15:34;;;;;;;0.70;0.70;;;;;;;2.12;100.00;93827.84;5146314;27;20885;-76
2023/03/16 01:18:00;;;;;;;1.13;0.82;;;;;;;2.13;100.00;93824.09;5142166;27;20347;-75
2023/03/16 01:20:29;;;;;;;0.95;0.80;;;;;;;2.16;100.00;93824.59;5137129;27;20196;-77
2023/03/16 01:22:55;;;;;;;0.90;0.50;;;;;;;2.04;100.00;93831.22;5137156;27;20781;-76
2023/03/16 01:25:23;;;;;;;0.73;0.73;;;;;;;1.85;100.00;93829.66;5150612;27;20204;-76
2023/03/16 01:27:49;;;;;;;0.68;0.68;;;;;;;1.83;100.00;93835.28;5150592;27;20245;-78
2023/03/16 01:30:16;;;;;;;0.70;0.70;;;;;;;1.86;100.00;93842.72;5150601;27;20197;-77
2023/03/16 01:32:43;;;;;;;0.70;0.70;;;;;;;1.87;100.00;93838.19;5137261;27;20197;-73
2023/03/16 01:35:10;;;;;;;0.70;0.70;;;;;;;1.91;100.00;93831.97;5136763;27;20724;-76
2023/03/16 01:37:38;;;;;;;2.55;0.90;;;;;;;1.90;100.00;93835.72;5136580;27;20725;-75
2023/03/16 01:40:07;;;;;;;0.90;0.90;;;;;;;1.89;100.00;93831.47;5137308;27;20222;-77
2023/03/16 01:42:45;;;;;;;0.90;0.60;;;;;;;1.83;100.00;93845.19;5136133;27;20193;-77
2023/03/16 01:45:45;;;;;;;0.80;0.80;;;;;;;1.86;100.00;93850.72;5140894;27;20283;-76
2023/03/16 01:48:12;;;;;;;0.80;0.60;;;;;;;1.74;100.00;93845.06;5136527;27;20249;-78
2023/03/16 01:50:39;;;;;;;0.55;0.55;;;;;;;1.74;100.00;93850.41;5150069;27;20245;-76
2023/03/16 01:53:07;;;;;;;0.80;0.70;;;;;;;1.66;100.00;93840.38;5150141;27;20271;-75
2023/03/16 01:55:34;;;;;;;1.00;0.70;;;;;;;1.75;100.00;93849.31;5149987;27;20235;-77
2023/03/16 01:58:01;;;;;;;1.35;0.68;;;;;;;1.74;100.00;93853.88;5137038;27;20264;-76
2023/03/16 02:00:30;;;;;;;1.02;0.93;;;;;;;1.80;100.00;93851.88;5135132;27;20224;-76
2023/03/16 02:03:04;;;;;;;0.73;0.73;;;;;;;1.80;100.00;93857.22;5137169;27;20199;-77
2023/03/16 02:05:37;;;;;;;0.73;0.50;;;;;;;1.84;100.00;93857.44;5148160;27;20207;-74
2023/03/16 02:08:05;;;;;;;0.90;0.55;;;;;;;1.84;100.00;93866.25;5138735;27;20196;-75
2023/03/16 02:10:34;;;;;;;0.60;0.60;;;;;;;1.82;100.00;93870.28;5149601;27;20200;-76
2023/03/16 02:13:02;;;;;;;1.33;0.80;;;;;;;1.87;100.00;93867.53;5150213;27;20220;-76
2023/03/16 02:15:29;;;;;;;1.13;0.80;;;;;;;1.82;100.00;93871.09;5145992;27;20320;-76
2023/03/16 02:17:59;;;;;;;1.55;0.77;;;;;;;1.82;100.00;93871.09;5130270;27;20285;-77
2023/03/16 02:20:36;;;;;;;0.90;0.80;;;;;;;1.79;100.00;93877.00;5149759;27;20288;-76
2023/03/16 02:23:05;;;;;;;1.48;0.90;;;;;;;1.82;100.00;93875.63;5149508;27;20228;-76
2023/03/16 02:25:42;;;;;;;1.15;0.90;;;;;;;1.72;100.00;93893.41;5141867;27;20265;-77
2023/03/16 02:28:18;;;;;;;0.80;0.80;;;;;;;1.66;100.00;93889.19;5142729;27;20680;-74
2023/03/16 02:30:47;;;;;;;0.80;0.80;;;;;;;1.69;100.00;93893.19;5138891;27;20237;-77
2023/03/16 02:33:15;;;;;;;0.50;0.40;;;;;;;1.55;100.00;93892.31;5147496;27;20208;-79
2023/03/16 02:35:42;;;;;;;0.50;0.50;;;;;;;1.54;100.00;93896.06;5138122;27;20213;-78
2023/03/16 02:38:09;;;;;;;0.50;0.50;;;;;;;1.59;100.00;93893.34;5147374;27;20200;-76
2023/03/16 02:40:37;;;;;;;0.70;0.70;;;;;;;1.60;100.00;93900.25;5149029;27;20201;-76
2023/03/16 02:43:07;;;;;;;0.95;0.80;;;;;;;1.60;100.00;93900.25;5135870;27;20215;-80
2023/03/16 02:45:39;;;;;;;0.40;0.40;;;;;;;1.63;100.00;93897.03;5136746;27;20241;-76
2023/03/16 02:48:13;;;;;;;0.50;0.50;;;;;;;1.61;100.00;93901.84;5142366;27;20562;-76
2023/03/16 02:50:49;;;;;;;0.85;0.50;;;;;;;1.54;100.00;93901.41;5142708;27;20194;-75
2023/03/16 02:53:17;;;;;;;0.95;0.30;;;;;;;1.51;100.00;93899.31;5137968;27;20271;-75
2023/03/16 02:55:45;;;;;;;0.30;0.30;;;;;;;1.56;100.00;93912.59;5135499;27;20232;-75
2023/03/16 02:58:12;;;;;;;0.40;0.40;;;;;;;1.55;100.00;93905.66;5142918;27;20207;-76
2023/03/16 03:00:39;;;;;;;0.40;0.40;;;;;;;1.56;100.00;93921.38;5149446;27;20232;-76
2023/03/16 03:03:08;;;;;;;0.35;0.35;;;;;;;1.45;100.00;93919.16;5153930;27;20306;-76
2023/03/16 03:05:35;;;;;;;0.30;0.30;;;;;;;1.48;100.00;93913.25;5153235;27;20650;-74
2023/03/16 03:08:02;;;;;;;0.43;0.43;;;;;;;1.41;100.00;93910.91;5153806;27;20207;-77
2023/03/16 03:10:28;;;;;;;0.43;0.43;;;;;;;1.40;100.00;93912.00;5138951;27;20663;-78
2023/03/16 03:12:56;;;;;;;0.50;0.50;;;;;;;1.41;100.00;93927.72;5152949;27;20295;-79
2023/03/16 03:15:24;;;;;;;0.50;0.50;;;;;;;1.43;100.00;93927.44;5139017;27;20244;-76
2023/03/16 03:17:51;;;;;;;0.50;0.50;;;;;;;1.50;100.00;93921.75;5152882;27;20785;-79
2023/03/16 03:20:20;;;;;;;0.30;0.30;;;;;;;1.48;100.00;93931.91;5139938;27;20200;-79
2023/03/16 03:22:49;;;;;;;0.57;0.50;;;;;;;1.53;100.00;93929.16;5132833;27;20245;-81
2023/03/16 03:25:17;;;;;;;0.63;0.60;;;;;;;1.53;100.00;93926.50;5149071;27;20642;-80
2023/03/16 03:27:45;;;;;;;1.05;0.90;;;;;;;1.52;100.00;93935.59;5143210;27;20286;-79
2023/03/16 03:30:15;;;;;;;0.30;0.30;;;;;;;1.52;100.00;93932.91;5141259;27;20715;-79
2023/03/16 03:32:42;;;;;;;1.23;0.50;;;;;;;1.39;100.00;93943.22;5147496;27;20276;-78
2023/03/16 03:35:11;;;;;;;0.40;0.38;;;;;;;1.43;100.00;93933.56;5148773;27;20616;-78
2023/03/16 03:37:39;;;;;;;0.30;0.30;;;;;;;1.39;100.00;93937.09;5140998;27;20342;-79
2023/03/16 03:40:09;;;;;;;0.30;0.30;;;;;;;1.39;100.00;93948.56;5149026;27;20197;-77
2023/03/16 03:42:36;;;;;;;0.20;0.20;;;;;;;1.34;100.00;93951.31;5148003;27;20284;-77
2023/03/16 03:45:03;;;;;;;0.50;0.50;;;;;;;1.34;100.00;93951.31;5146361;27;20205;-79
2023/03/16 03:47:30;;;;;;;0.85;0.60;;;;;;;1.34;100.00;93956.66;5137897;27;20212;-81
2023/03/16 03:49:57;;;;;;;0.22;0.22;;;;;;;1.30;100.00;93966.28;5152971;27;20200;-79
2023/03/16 03:52:23;;;;;;;0.30;0.30;;;;;;;1.30;100.00;93968.16;5148672;27;20264;-80
2023/03/16 03:54:51;;;;;;;0.73;0.68;;;;;;;1.29;100.00;93978.03;5144091;27;20242;-78
2023/03/16 03:57:18;;;;;;;0.50;0.50;;;;;;;1.31;100.00;93975.88;5143922;27;20232;-79
2023/03/16 03:59:45;;;;;;;0.50;0.50;;;;;;;1.31;100.00;93975.88;5144138;27;20216;-80
2023/03/16 04:02:13;;;;;;;0.80;0.70;;;;;;;1.43;100.00;93984.25;5138541;27;20205;-81
2023/03/16 04:04:40;;;;;;;0.52;0.52;;;;;;;1.31;100.00;93989.22;5147217;27;20241;-79
2023/03/16 04:07:07;;;;;;;1.25;0.70;;;;;;;1.37;100.00;93982.72;5149275;27;20201;-79
2023/03/16 04:09:34;;;;;;;2.22;0.60;;;;;;;1.33;100.00;93980.94;5141425;27;20262;-80
2023/03/16 04:12:03;;;;;;;0.57;0.50;;;;;;;1.28;99.98;93984.44;5135483;27;20300;-79
2023/03/16 04:14:31;;;;;;;0.95;0.60;;;;;;;1.36;99.34;93975.84;5148918;27;20207;-79
2023/03/16 04:16:58;;;;;;;0.80;0.57;;;;;;;1.23;99.30;93959.72;5146400;27;20230;-79
2023/03/16 04:19:25;;;;;;;1.02;0.85;;;;;;;1.19;100.00;93980.84;5140069;27;20238;-80
2023/03/16 04:21:52;;;;;;;1.25;0.70;;;;;;;1.25;100.00;93990.34;5150710;27;20212;-77
2023/03/16 04:24:21;;;;;;;0.65;0.63;;;;;;;1.25;100.00;93976.22;5152448;27;20200;-78
2023/03/16 04:26:48;;;;;;;0.93;0.77;;;;;;;1.33;100.00;93992.41;5138163;27;20714;-79
2023/03/16 04:29:17;;;;;;;0.52;0.32;;;;;;;1.36;100.00;94002.50;5149163;27;20192;-82
2023/03/16 04:31:45;;;;;;;1.38;0.68;;;;;;;1.12;100.00;93969.69;5138730;27;20283;-78
2023/03/16 04:34:12;;;;;;;0.93;0.73;;;;;;;1.21;100.00;93989.34;5152087;27;20222;-80
2023/03/16 04:36:40;;;;;;;0.68;0.60;;;;;;;1.22;99.99;93982.94;5131614;27;20289;-82
2023/03/16 04:39:07;;;;;;;0.40;0.40;;;;;;;1.31;99.26;94010.56;5144345;27;20192;-81
2023/03/16 04:41:34;;;;;;;0.40;0.40;;;;;;;1.27;99.82;94009.53;5137903;27;20226;-80
2023/03/16 04:44:01;;;;;;;0.60;0.60;;;;;;;1.27;99.90;94006.88;5139137;27;20193;-84
2023/03/16 04:46:29;;;;;;;0.30;0.30;;;;;;;1.35;99.81;94011.59;5137921;27;20294;-83
2023/03/16 04:48:57;;;;;;;0.45;0.38;;;;;;;1.40;98.67;94018.72;5138936;27;20208;-85
2023/03/16 04:51:24;;;;;;;0.30;0.30;;;;;;;1.22;98.23;94017.63;5131613;27;20292;-80
2023/03/16 04:53:51;;;;;;;0.50;0.50;;;;;;;1.29;99.06;94034.06;5145394;27;20540;-86
2023/03/16 04:56:18;;;;;;;0.40;0.40;;;;;;;1.29;99.03;94018.06;5151798;27;20251;-85
2023/03/16 04:58:46;;;;;;;0.77;0.40;;;;;;;1.36;98.82;94029.19;5151700;27;20710;-81
2023/03/16 05:01:13;;;;;;;0.55;0.55;;;;;;;1.29;98.54;94034.06;5139623;27;20215;-83
2023/03/16 05:03:42;;;;;;;0.63;0.50;;;;;;;1.33;99.29;94045.75;5139221;27;20291;-80
2023/03/16 05:06:10;;;;;;;0.60;0.57;;;;;;;1.38;98.90;94043.00;5145122;27;20201;-82
2023/03/16 05:08:37;;;;;;;0.60;0.60;;;;;;;1.41;98.73;94050.47;5146097;27;20215;-83
2023/03/16 05:11:04;;;;;;;0.40;0.40;;;;;;;1.40;98.52;94046.19;5140245;27;20200;-80
2023/03/16 05:13:31;;;;;;;0.40;0.38;;;;;;;1.48;98.32;94052.00;5137407;27;20217;-79
2023/03/16 05:15:58;;;;;;;0.47;0.40;;;;;;;1.45;98.63;94058.69;5151764;27;20659;-79
2023/03/16 05:18:25;;;;;;;0.68;0.60;;;;;;;1.42;98.30;94051.25;5149487;27;20235;-82
2023/03/16 05:20:55;;;;;;;0.55;0.43;;;;;;;1.62;98.49;94047.56;5139719;27;20280;-79
2023/03/16 05:23:23;;;;;;;0.80;0.55;;;;;;;1.54;98.61;94053.50;5151131;27;20296;-78
2023/03/16 05:25:50;;;;;;;0.57;0.50;;;;;;;1.59;97.59;94053.47;5139868;27;20258;-79
2023/03/16 05:28:22;;;;;;;1.15;0.50;;;;;;;1.65;96.98;94068.31;5144367;27;20221;-80
2023/03/16 05:30:50;;;;;;;0.60;0.50;;;;;;;1.64;96.00;94064.09;5140260;27;20243;-80
2023/03/16 05:33:17;;;;;;;0.60;0.45;;;;;;;1.75;96.07;94071.69;5134861;27;20211;-77
2023/03/16 05:35:44;;;;;;;0.40;0.40;;;;;;;1.63;95.03;94065.97;5151292;27;20595;-77
2023/03/16 05:38:12;;;;;;;0.38;0.38;;;;;;;1.72;96.19;94076.78;5136838;27;20231;-78
2023/03/16 05:40:39;;;;;;;0.47;0.47;;;;;;;1.51;97.38;94078.09;5151613;27;20272;-77
2023/03/16 05:43:05;;;;;;;0.50;0.50;;;;;;;1.51;97.81;94075.44;5137020;27;20207;-77
2023/03/16 05:45:32;;;;;;;0.80;0.60;;;;;;;1.50;97.23;94079.19;5150781;27;20219;-76
2023/03/16 05:47:59;;;;;;;0.45;0.32;;;;;;;1.49;97.65;94080.28;5136635;27;20196;-77
2023/03/16 05:50:27;;;;;;;0.38;0.38;;;;;;;1.53;97.16;94086.63;5139781;27;20284;-75
2023/03/16 05:52:54;;;;;;;1.80;0.65;;;;;;;1.46;97.55;94094.19;5148349;27;20196;-78
2023/03/16 05:55:22;;;;;;;0.50;0.50;;;;;;;1.52;97.68;94095.69;5147256;27;20594;-76
2023/03/16 05:57:49;;;;;;;0.35;0.35;;;;;;;1.47;97.43;94101.09;5138980;27;20281;-77
2023/03/16 06:00:18;;;;;;;1.67;1.08;;;;;;;1.33;97.86;94099.13;5137308;27;20603;-76
2023/03/16 06:02:47;;;;;;;0.98;0.70;;;;;;;1.36;97.36;94114.56;5150063;27;20201;-77
2023/03/16 06:05:14;;;;;;;1.25;0.90;;;;;;;1.38;98.44;94107.03;5138041;27;20238;-78
2023/03/16 06:07:41;;;;;;;1.20;0.90;;;;;;;1.34;98.33;94106.03;5136617;27;20204;-78
2023/03/16 06:10:10;;;;;;;2.22;1.20;;;;;;;1.53;98.69;94110.63;5150928;27;20200;-78
2023/03/16 06:12:38;;;;;;;1.40;0.98;;;;;;;1.68;98.11;94110.47;5136802;27;20220;-77
2023/03/16 06:15:07;;;;;;;1.17;0.80;;;;;;;1.65;96.89;94105.69;5150908;27;20616;-76
2023/03/16 06:17:34;;;;;;;0.77;0.50;;;;;;;1.74;96.51;94107.47;5136185;27;20799;-79
2023/03/16 06:20:01;;;;;;;0.60;0.60;;;;;;;1.74;95.79;94123.47;5137107;27;20189;-79
2023/03/16 06:22:29;;;;;;;0.20;0.20;;;;;;;1.87;95.94;94130.00;5150539;27;20291;-79
2023/03/16 06:24:55;;;;;;;0.30;0.30;;;;;;;1.96;96.14;94132.81;5148721;27;20808;-79
2023/03/16 06:27:25;;;;;;;0.60;0.50;;;;;;;1.92;96.02;94132.59;5140460;27;20555;-79
2023/03/16 06:29:53;;;;;;;0.30;0.30;;;;;;;2.14;95.23;94134.75;5140797;27;20245;-79
2023/03/16 06:32:20;;;;;;;0.65;0.45;;;;;;;2.12;94.54;94142.25;5131264;27;20197;-79
2023/03/16 06:34:47;;;;;;;0.47;0.47;;;;;;;2.20;94.18;94149.63;5149950;27;20235;-78
2023/03/16 06:37:14;;;;;;;0.40;0.40;;;;;;;2.10;93.73;94145.22;5138781;27;20228;-78
2023/03/16 06:39:41;;;;;;;0.85;0.73;;;;;;;2.14;94.26;94156.91;5143863;27;20204;-78
2023/03/16 06:42:08;;;;;;;0.55;0.50;;;;;;;2.13;93.13;94155.31;5140183;27;20204;-78
2023/03/16 06:44:34;;;;;;;0.52;0.50;;;;;;;2.16;92.70;94158.50;5149905;27;20204;-78
2023/03/16 06:47:04;;;;;;;0.38;0.38;;;;;;;2.12;92.43;94164.41;5149593;27;20214;-78
2023/03/16 06:49:30;;;;;;;0.47;0.38;;;;;;;2.28;91.76;94166.91;5144733;27;20220;-76
2023/03/16 06:51:57;;;;;;;0.40;0.40;;;;;;;2.29;91.30;94168.50;5141620;27;20196;-76
2023/03/16 06:54:24;;;;;;;0.38;0.38;;;;;;;2.17;90.90;94170.78;5135669;27;20260;-77
2023/03/16 06:56:51;;;;;;;0.45;0.43;;;;;;;2.14;90.32;94172.16;5150317;27;20230;-76
2023/03/16 06:59:18;;;;;;;0.50;0.50;;;;;;;2.17;90.61;94176.13;5135853;27;20299;-77
2023/03/16 07:01:44;;;;;;;3.97;1.63;;;;;;;2.23;89.97;94172.31;5137105;27;20253;-76
2023/03/16 07:04:12;;;;;;;0.98;0.50;;;;;;;2.22;89.56;94184.06;5143173;27;20312;-77
2023/03/16 07:06:40;;;;;;;0.77;0.77;;;;;;;2.20;89.82;94186.22;5129880;28;20261;-77
2023/03/16 07:09:07;;;;;;;1.55;0.40;;;;;;;2.28;89.80;94182.94;5142678;27;20205;-77
2023/03/16 07:11:34;;;;;;;0.40;0.40;;;;;;;2.29;89.04;94195.22;5142828;27;20249;-76
2023/03/16 07:14:01;;;;;;;1.13;0.60;;;;;;;2.37;90.49;94197.25;5135812;27;20253;-77
2023/03/16 07:16:28;;;;;;;0.52;0.52;;;;;;;2.49;90.42;94200.28;5149537;27;20212;-77
2023/03/16 07:18:55;;;;;;;0.35;0.35;;;;;;;2.43;89.73;94196.09;5128180;28;20240;-77
2023/03/16 07:21:24;;;;;;;0.65;0.50;;;;;;;2.39;90.38;94200.44;5143412;27;20188;-77
2023/03/16 07:23:50;;;;;;;0.43;0.40;;;;;;;2.40;90.24;94204.69;5136246;27;20571;-77
2023/03/16 07:26:17;;;;;;;0.40;0.40;;;;;;;2.31;90.56;94207.22;5135238;27;20628;-79
2023/03/16 07:28:44;;;;;;;0.60;0.60;;;;;;;2.34;91.02;94209.28;5133345;27;20201;-79
2023/03/16 07:31:11;;;;;;;0.98;0.63;;;;;;;2.32;91.35;94206.13;5144089;27;20287;-78
2023/03/16 07:33:38;;;;;;;0.85;0.60;;;;;;;2.42;91.48;94203.31;5141499;27;20227;-79
2023/03/16 07:36:08;;;;;;;1.02;0.60;;;;;;;2.35;91.17;94215.44;5142366;27;20783;-78
2023/03/16 07:38:36;;;;;;;0.90;0.90;;;;;;;2.49;91.63;94214.44;5137226;27;20231;-79
2023/03/16 07:41:03;;;;;;;0.77;0.40;;;;;;;2.52;91.55;94221.09;5135700;27;20205;-79
2023/03/16 07:43:29;;;;;;;0.50;0.50;;;;;;;2.57;89.83;94207.69;5141857;27;20242;-82
2023/03/16 07:45:56;;;;;;;1.55;0.98;;;;;;;2.62;90.01;94225.50;5134541;27;20660;-80
2023/03/16 07:48:23;;;;;;;0.63;0.63;;;;;;;2.65;88.96;94220.41;5145187;27;20204;-80
2023/03/16 07:50:50;;;;;;;0.65;0.65;;;;;;;2.70;88.54;94223.00;5146457;27;20284;-83
2023/03/16 07:53:17;;;;;;;0.65;0.65;;;;;;;2.68;88.70;94219.81;5141986;27;20200;-81
2023/03/16 07:55:45;;;;;;;2.25;0.80;;;;;;;2.99;88.28;94230.09;5139982;27;20282;-82
2023/03/16 07:58:13;;;;;;;0.40;0.40;;;;;;;2.89;87.48;94235.56;5143738;27;20225;-81
2023/03/16 08:00:41;;;;;;;0.60;0.60;;;;;;;2.89;88.34;94230.22;5149693;27;20213;-78
2023/03/16 08:03:08;;;;;;;0.47;0.47;;;;;;;3.00;87.41;94231.69;5143236;27;20292;-81
2023/03/16 08:05:35;;;;;;;0.50;0.50;;;;;;;2.83;87.34;94224.16;5149601;27;20215;-80
2023/03/16 08:08:02;;;;;;;0.47;0.47;;;;;;;2.89;87.28;94230.22;5142779;27;20255;-80
2023/03/16 08:10:30;;;;;;;1.25;0.88;;;;;;;3.11;87.20;94223.22;5149053;27;20204;-81
2023/03/16 08:12:58;;;;;;;0.80;0.73;;;;;;;3.19;87.37;94235.13;5153108;27;20232;-80
2023/03/16 08:15:25;;;;;;;1.45;0.88;;;;;;;3.44;87.17;94232.06;5152303;27;20239;-79
2023/03/16 08:17:52;;;;;;;1.60;0.80;;;;;;;3.11;86.52;94235.81;5152183;27;20236;-80
2023/03/16 08:20:20;;;;;;;0.50;0.50;;;;;;;3.14;87.05;94244.03;5152378;27;20770;-80
2023/03/16 08:22:48;;;;;;;0.80;0.80;;;;;;;3.22;87.50;94243.38;5152290;27;20284;-78
2023/03/16 08:25:18;;;;;;;0.43;0.43;;;;;;;3.16;86.99;94236.50;5147067;27;20675;-81
2023/03/16 08:27:45;;;;;;;0.50;0.50;;;;;;;3.29;88.36;94250.25;5144273;27;20235;-79
2023/03/16 08:30:16;;;;;;;0.30;0.30;;;;;;;3.28;86.44;94248.69;5140623;27;20201;-79
2023/03/16 08:32:43;;;;;;;0.50;0.50;;;;;;;3.41;86.42;94253.28;5139382;27;20200;-79
2023/03/16 08:35:13;;;;;;;0.80;0.80;;;;;;;3.28;87.22;94254.78;5151878;27;20253;-80
2023/03/16 08:37:40;;;;;;;1.00;0.70;;;;;;;3.17;85.38;94256.84;5138564;27;20296;-79
2023/03/16 08:40:12;;;;;;;0.40;0.40;;;;;;;3.60;85.75;94250.56;5151851;27;20204;-81
2023/03/16 08:42:40;;;;;;;0.63;0.63;;;;;;;3.74;85.03;94246.03;5138191;27;20275;-81
2023/03/16 08:45:09;;;;;;;0.50;0.50;;;;;;;3.60;83.19;94246.00;5144225;27;20597;-81
2023/03/16 08:47:39;;;;;;;1.77;0.55;;;;;;;3.91;85.07;94252.44;5145300;27;20287;-80
2023/03/16 08:50:06;;;;;;;2.35;1.38;;;;;;;4.24;83.73;94261.19;5141022;27;20708;-81
2023/03/16 08:52:35;;;;;;;1.00;0.80;;;;;;;4.20;83.99;94260.22;5138338;27;20213;-83
2023/03/16 08:55:03;;;;;;;0.70;0.70;;;;;;;4.10;82.22;94255.03;5142011;27;20209;-80
2023/03/16 08:57:31;;;;;;;0.73;0.73;;;;;;;3.76;82.67;94258.06;5145070;27;20225;-80
2023/03/16 08:59:58;;;;;;;0.65;0.60;;;;;;;3.84;81.74;94261.94;5141288;27;20250;-84
2023/03/16 09:02:25;;;;;;;1.05;1.05;;;;;;;3.93;81.97;94254.81;5138659;27;20276;-81
2023/03/16 09:04:55;;;;;;;1.23;0.82;;;;;;;3.69;81.40;94265.66;5142259;27;20205;-80
2023/03/16 09:07:21;;;;;;;0.70;0.70;;;;;;;3.69;81.97;94267.56;5134978;27;20204;-82
2023/03/16 09:09:48;;;;;;;1.33;0.82;;;;;;;3.97;81.49;94265.72;5141993;27;20291;-80
2023/03/16 09:12:15;;;;;;;0.77;0.77;;;;;;;3.79;81.43;94264.72;5144871;27;20220;-81
2023/03/16 09:14:42;;;;;;;0.60;0.50;;;;;;;3.53;82.16;94277.72;5142403;27;20594;-81
2023/03/16 09:17:10;;;;;;;0.90;0.77;;;;;;;3.41;81.80;94275.50;5152390;27;20261;-81
2023/03/16 09:19:37;;;;;;;0.43;0.43;;;;;;;3.55;82.34;94287.03;5139431;27;20281;-80
2023/03/16 09:22:05;;;;;;;0.47;0.47;;;;;;;3.47;81.97;94290.38;5150620;27;20197;-80
2023/03/16 09:24:32;;;;;;;0.60;0.60;;;;;;;3.41;82.99;94285.41;5152112;27;20204;-82
2023/03/16 09:26:59;;;;;;;0.40;0.40;;;;;;;3.47;82.82;94284.22;5151788;27;20272;-80
2023/03/16 09:29:26;;;;;;;0.85;0.85;;;;;;;3.41;83.54;94291.56;5151874;27;20257;-80
2023/03/16 09:31:53;;;;;;;0.93;0.70;;;;;;;3.41;82.67;94283.53;5137526;27;20208;-82
2023/03/16 09:34:20;;;;;;;0.75;0.70;;;;;;;3.36;82.50;94288.94;5151337;27;20264;-81
2023/03/16 09:36:47;;;;;;;0.65;0.65;;;;;;;3.23;81.63;94284.34;5137563;27;20663;-79
2023/03/16 09:39:17;;;;;;;1.08;0.80;;;;;;;3.37;82.03;94279.84;5138030;27;20398;-80
2023/03/16 09:41:48;;;;;;;0.50;0.50;;;;;;;3.50;81.87;94284.47;5130710;27;20737;-82
2023/03/16 09:44:32;;;;;;;2.45;0.90;;;;;;;3.41;82.06;94275.50;5145027;27;20199;-83
2023/03/16 09:47:01;;;;;;;1.15;0.93;;;;;;;3.33;82.38;94289.53;5131530;27;20233;-81
2023/03/16 09:49:34;;;;;;;0.57;0.57;;;;;;;3.40;82.56;94295.31;5145598;27;20223;-81
2023/03/16 09:52:12;;;;;;;0.73;0.70;;;;;;;3.29;82.97;94287.72;5143090;27;20247;-81
2023/03/16 09:54:48;;;;;;;0.70;0.70;;;;;;;3.36;83.42;94294.31;5137119;27;20256;-80
2023/03/16 09:57:24;;;;;;;9.52;1.30;;;;;;;3.26;83.87;94301.69;5150232;27;20198;-81
2023/03/16 09:59:52;;;;;;;0.90;0.60;;;;;;;3.31;84.01;94297.03;5141141;27;20645;-80
2023/03/16 10:02:47;;;;;;;1.80;0.68;;;;;;;3.33;84.75;94297.56;5137815;27;21067;-79
2023/03/16 10:05:17;;;;;;;1.50;1.20;;;;;;;3.31;84.02;94297.03;5137886;27;20212;-83
2023/03/16 10:07:53;;;;;;;1.33;0.85;;;;;;;3.30;85.76;94298.13;5149770;27;20280;-80
2023/03/16 10:10:37;;;;;;;0.65;0.60;;;;;;;3.43;86.37;94294.72;5136921;27;20205;-79
2023/03/16 10:13:18;;;;;;;1.00;0.88;;;;;;;3.25;85.66;94305.44;5139896;27;20204;-80
2023/03/16 10:15:47;;;;;;;1.05;0.88;;;;;;;3.20;85.18;94295.59;5136636;27;20196;-80
2023/03/16 10:18:18;;;;;;;0.95;0.60;;;;;;;3.17;84.32;94296.19;5136227;27;20328;-79
2023/03/16 10:20:46;;;;;;;1.48;0.60;;;;;;;3.25;85.12;94300.91;5131271;27;20197;-81
2023/03/16 10:23:17;;;;;;;1.00;0.90;;;;;;;3.46;86.06;94304.06;5147141;27;20287;-79
2023/03/16 10:25:48;;;;;;;1.67;1.17;;;;;;;3.54;84.79;94298.88;5140435;27;20778;-81
2023/03/16 10:28:17;;;;;;;1.10;0.85;;;;;;;3.40;83.42;94295.31;5147348;27;20204;-80
2023/03/16 10:30:44;;;;;;;1.58;1.10;;;;;;;3.62;83.91;94304.63;5142044;27;20815;-79
2023/03/16 10:33:20;;;;;;;2.00;0.82;;;;;;;3.61;83.79;94303.03;5132561;27;20197;-80
2023/03/16 10:35:48;;;;;;;1.13;1.02;;;;;;;3.64;83.27;94289.88;5142983;27;20195;-82
2023/03/16 10:38:37;;;;;;;0.63;0.63;;;;;;;3.94;83.82;94299.28;5137630;27;20220;-83
2023/03/16 10:41:19;;;;;;;1.50;1.00;;;;;;;3.82;83.19;94290.91;5150406;27;20260;-80
2023/03/16 10:43:46;;;;;;;0.65;0.65;;;;;;;3.58;82.64;94291.81;5141809;27;20196;-80
2023/03/16 10:46:16;;;;;;;0.65;0.65;;;;;;;3.77;83.56;94302.50;5138397;27;20328;-79
2023/03/16 10:48:53;;;;;;;1.15;0.70;;;;;;;3.85;82.76;94290.31;5138303;27;20193;-79
2023/03/16 10:51:25;;;;;;;0.82;0.80;;;;;;;3.78;82.82;94295.25;5137240;27;20202;-78
2023/03/16 10:53:53;;;;;;;2.65;1.40;;;;;;;3.84;83.16;94294.88;5137446;27;20257;-81
2023/03/16 10:56:25;;;;;;;1.23;1.00;;;;;;;3.81;81.27;94286.66;5144048;27;20505;-79
2023/03/16 10:58:52;;;;;;;1.30;0.90;;;;;;;3.86;80.82;94297.25;5144604;27;20316;-78
2023/03/16 11:01:21;;;;;;;0.95;0.88;;;;;;;3.80;78.80;94283.19;5138971;27;20670;-81
2023/03/16 11:03:52;;;;;;;3.30;1.10;;;;;;;3.80;79.09;94288.53;5149511;27;20667;-80
2023/03/16 11:06:23;;;;;;;0.63;0.63;;;;;;;3.83;78.74;94287.13;5141048;27;20632;-81
2023/03/16 11:08:51;;;;;;;1.90;1.33;;;;;;;3.82;78.99;94301.63;5136438;27;20193;-78
2023/03/16 11:11:32;;;;;;;1.10;1.00;;;;;;;3.54;77.81;94300.75;5139166;27;20225;-81
2023/03/16 11:14:01;;;;;;;1.25;1.13;;;;;;;3.52;78.75;94303.72;5150087;27;20219;-79
2023/03/16 11:16:33;;;;;;;1.55;0.80;;;;;;;3.65;77.23;94301.38;5148623;27;20633;-79
2023/03/16 11:19:06;;;;;;;0.65;0.65;;;;;;;3.76;76.59;94294.75;5144631;27;20247;-80
2023/03/16 11:21:43;;;;;;;2.30;1.25;;;;;;;4.00;77.96;94302.66;5147428;27;20192;-78
2023/03/16 11:24:18;;;;;;;1.13;1.00;;;;;;;3.79;77.92;94296.84;5133828;27;20250;-79
2023/03/16 11:26:53;;;;;;;0.77;0.77;;;;;;;3.76;77.84;94302.78;5147787;27;20305;-78
2023/03/16 11:29:24;;;;;;;0.90;0.80;;;;;;;3.65;78.12;94298.69;5141586;27;20192;-78
2023/03/16 11:31:55;;;;;;;0.85;0.80;;;;;;;3.81;77.69;94300.03;5139890;27;20275;-78
2023/03/16 11:34:27;;;;;;;0.88;0.73;;;;;;;3.69;77.51;94297.03;5154016;27;20196;-80
2023/03/16 11:36:58;;;;;;;1.13;0.70;;;;;;;3.69;77.96;94303.16;5153446;27;20741;-79
2023/03/16 11:39:41;;;;;;;1.02;0.80;;;;;;;3.73;78.31;94298.00;5139716;27;20240;-80
2023/03/16 11:42:24;;;;;;;1.70;1.30;;;;;;;3.58;77.51;94297.16;5143034;27;20197;-79
2023/03/16 11:44:56;;;;;;;2.30;1.40;;;;;;;3.69;77.62;94310.41;5146310;27;20193;-77
2023/03/16 11:47:59;;;;;;;2.42;1.40;;;;;;;3.85;77.81;94301.03;5146953;27;20185;-79